Time;durP1;ratioP1;P1;durP2;ratioP2;P2;SDS_P1;SDS_P2;PMS_P1;PMS_P2;Temp;Humidity;BMP_temperature;BMP_pressure;BME280_temperature;BME280_humidity;BME280_pressure;Samples;Min_cycle;Max_cycle;Signal;HPM_P1;HPM_P2
2023/07/26 00:01:59;;;;;;;7.00;5.00;;;;;;;24.18;100.00;98188.45;105105;1259;60390;-50
2023/07/26 00:04:26;;;;;;;11.00;4.40;;;;;;;24.14;100.00;98188.36;105132;1262;60058;-51
2023/07/26 00:06:53;;;;;;;4.30;3.50;;;;;;;24.11;100.00;98191.45;105084;1262;73057;-48
2023/07/26 00:09:21;;;;;;;6.50;3.90;;;;;;;24.09;100.00;98195.75;105177;1257;66212;-50
2023/07/26 00:11:48;;;;;;;7.50;3.80;;;;;;;24.07;100.00;98205.92;105204;1256;72799;-51
2023/07/26 00:14:16;;;;;;;9.00;4.10;;;;;;;24.05;100.00;98194.25;105024;1256;60204;-50
2023/07/26 00:16:43;;;;;;;8.00;3.90;;;;;;;24.04;100.00;98200.48;104976;1257;61003;-48
2023/07/26 00:19:11;;;;;;;7.00;3.40;;;;;;;24.02;100.00;98198.04;104971;1263;73031;-48
2023/07/26 00:21:38;;;;;;;6.10;3.30;;;;;;;23.99;100.00;98200.22;105185;1258;65844;-49
2023/07/26 00:24:05;;;;;;;6.80;4.00;;;;;;;23.94;100.00;98201.39;105036;1261;70814;-50
2023/07/26 00:26:33;;;;;;;5.80;2.50;;;;;;;23.89;100.00;98202.54;105440;1253;59730;-49
2023/07/26 00:29:01;;;;;;;5.00;2.50;;;;;;;23.84;100.00;98197.32;105351;1253;60084;-50
2023/07/26 00:31:28;;;;;;;6.00;2.90;;;;;;;23.79;100.00;98193.22;105443;1257;72957;-50
2023/07/26 00:33:55;;;;;;;4.60;2.60;;;;;;;23.75;100.00;98200.09;105576;1251;65387;-49
2023/07/26 00:36:23;;;;;;;5.40;2.50;;;;;;;23.72;100.00;98194.38;105418;1258;73143;-48
2023/07/26 00:38:50;;;;;;;5.60;2.00;;;;;;;23.67;100.00;98189.23;105311;1253;61697;-51
2023/07/26 00:41:17;;;;;;;7.00;2.50;;;;;;;23.64;100.00;98186.03;105454;1258;61164;-49
2023/07/26 00:43:45;;;;;;;5.50;2.20;;;;;;;23.60;100.00;98189.20;105343;1253;73011;-47
2023/07/26 00:46:12;;;;;;;5.10;2.40;;;;;;;23.58;100.00;98198.26;105367;1253;65642;-48
2023/07/26 00:48:39;;;;;;;3.10;2.30;;;;;;;23.56;100.00;98207.69;105386;1253;72699;-48
2023/07/26 00:51:07;;;;;;;4.30;1.80;;;;;;;23.53;100.00;98202.30;105364;1257;60046;-48
2023/07/26 00:53:34;;;;;;;6.20;1.80;;;;;;;23.50;100.00;98199.02;105304;1257;59682;-49
2023/07/26 00:56:02;;;;;;;5.60;1.80;;;;;;;23.45;100.00;98197.60;105345;1259;73493;-49
2023/07/26 00:58:29;;;;;;;5.10;2.40;;;;;;;23.40;100.00;98203.25;105250;1251;65677;-47
2023/07/26 01:00:57;;;;;;;5.10;1.90;;;;;;;23.35;100.00;98198.92;105276;1254;71472;-49
2023/07/26 01:03:24;;;;;;;4.60;1.90;;;;;;;23.31;100.00;98198.44;105436;1254;61694;-48
2023/07/26 01:05:59;;;;;;;2.90;1.60;;;;;;;23.27;100.00;98199.29;105379;1251;60025;-49
2023/07/26 01:09:01;;;;;;;2.60;1.10;;;;;;;23.23;100.00;98197.62;105291;1251;73572;-49
2023/07/26 01:11:35;;;;;;;3.80;1.10;;;;;;;23.20;100.00;98202.40;106244;1257;66725;-48
2023/07/26 01:14:14;;;;;;;5.70;1.40;;;;;;;23.18;100.00;98203.52;105309;1251;73174;-48
2023/07/26 01:16:42;;;;;;;6.20;1.30;;;;;;;23.16;100.00;98200.90;105051;1254;59749;-49
2023/07/26 01:19:09;;;;;;;3.90;1.30;;;;;;;23.13;100.00;98198.18;105316;1251;60009;-49
2023/07/26 01:21:37;;;;;;;4.20;1.50;;;;;;;23.09;100.00;98201.95;105372;1256;73165;-49
2023/07/26 01:24:05;;;;;;;5.30;1.30;;;;;;;23.05;100.00;98208.33;105348;1253;65567;-50
2023/07/26 01:26:33;;;;;;;2.40;0.90;;;;;;;23.01;100.00;98208.73;105379;1257;71454;-49
2023/07/26 01:29:01;;;;;;;2.50;1.10;;;;;;;22.96;100.00;98209.52;106117;1253;60102;-48
2023/07/26 01:31:28;;;;;;;4.80;1.10;;;;;;;22.92;100.00;98216.48;105373;1254;59638;-49
2023/07/26 01:33:56;;;;;;;2.10;1.00;;;;;;;22.88;100.00;98218.42;105427;1253;71047;-50
2023/07/26 01:36:23;;;;;;;3.40;0.90;;;;;;;22.85;100.00;98228.55;105411;1253;67635;-50
2023/07/26 01:38:51;;;;;;;3.80;1.00;;;;;;;22.81;100.00;98234.30;105351;1257;71413;-51
2023/07/26 01:41:18;;;;;;;5.20;0.90;;;;;;;22.78;100.00;98240.86;105325;1253;60034;-49
2023/07/26 01:43:46;;;;;;;5.50;1.10;;;;;;;22.77;100.00;98244.34;105333;1251;59761;-49
2023/07/26 01:46:13;;;;;;;3.90;0.90;;;;;;;22.76;100.00;98244.45;105329;1260;73035;-48
2023/07/26 01:48:41;;;;;;;2.40;1.40;;;;;;;22.75;100.00;98244.39;105286;1254;68271;-49
2023/07/26 01:51:08;;;;;;;5.20;0.80;;;;;;;22.73;100.00;98246.98;105325;1257;72589;-48
2023/07/26 01:53:36;;;;;;;2.60;1.20;;;;;;;22.71;100.00;98246.16;105223;1255;60047;-51
2023/07/26 01:56:04;;;;;;;2.50;0.90;;;;;;;22.68;100.00;98244.30;105232;1253;59957;-49
2023/07/26 01:58:31;;;;;;;6.80;0.90;;;;;;;22.65;100.00;98246.61;105203;1253;72451;-48
2023/07/26 02:01:01;;;;;;;2.30;0.90;;;;;;;22.62;100.00;98252.69;105335;1255;66452;-49
2023/07/26 02:03:29;;;;;;;6.10;1.10;;;;;;;22.59;100.00;98258.50;108913;1255;71806;-49
2023/07/26 02:05:56;;;;;;;2.20;0.80;;;;;;;22.57;100.00;98256.80;108858;1253;60499;-50
2023/07/26 02:08:23;;;;;;;2.10;0.80;;;;;;;22.55;100.00;98260.62;109118;1253;59981;-49
2023/07/26 02:10:51;;;;;;;3.00;0.70;;;;;;;22.55;100.00;98271.11;109125;1253;73624;-49
2023/07/26 02:13:18;;;;;;;4.80;0.90;;;;;;;22.54;100.00;98273.80;108859;1252;65688;-46
2023/07/26 02:15:46;;;;;;;2.80;0.90;;;;;;;22.54;100.00;98277.87;108871;1252;72061;-47
2023/07/26 02:18:14;;;;;;;5.30;1.00;;;;;;;22.52;100.00;98282.19;108977;1251;58777;-48
2023/07/26 02:20:41;;;;;;;3.10;0.80;;;;;;;22.51;100.00;98278.29;109123;1251;59924;-48
2023/07/26 02:23:09;;;;;;;4.50;1.00;;;;;;;22.49;100.00;98276.04;108988;1251;72140;-48
2023/07/26 02:25:36;;;;;;;6.10;0.80;;;;;;;22.47;100.00;98277.86;109016;1253;67616;-47
2023/07/26 02:28:03;;;;;;;2.70;0.80;;;;;;;22.46;100.00;98278.43;108688;1254;72405;-46
2023/07/26 02:30:31;;;;;;;3.00;0.80;;;;;;;22.44;100.00;98284.29;105333;1254;61213;-47
2023/07/26 02:32:58;;;;;;;2.00;0.80;;;;;;;22.43;100.00;98280.96;105306;1258;59628;-48
2023/07/26 02:35:25;;;;;;;2.50;0.90;;;;;;;22.42;100.00;98289.55;105367;1253;73767;-49
2023/07/26 02:37:53;;;;;;;3.20;0.90;;;;;;;22.41;100.00;98293.69;105404;1257;66635;-49
2023/07/26 02:40:20;;;;;;;2.30;0.80;;;;;;;22.39;100.00;98304.84;105370;1253;73171;-49
2023/07/26 02:42:48;;;;;;;1.60;0.90;;;;;;;22.38;100.00;98309.12;105343;1256;60559;-49
2023/07/26 02:45:15;;;;;;;1.00;0.80;;;;;;;22.38;100.00;98319.27;105205;1259;60461;-49
2023/07/26 02:47:42;;;;;;;3.90;1.00;;;;;;;22.36;100.00;98317.96;105110;1253;73850;-47
2023/07/26 02:50:10;;;;;;;7.20;1.80;;;;;;;22.34;100.00;98318.77;105318;1259;66675;-48
2023/07/26 02:52:37;;;;;;;3.10;0.80;;;;;;;22.31;100.00;98318.20;105359;1257;72467;-48
2023/07/26 02:55:05;;;;;;;1.20;0.60;;;;;;;22.29;100.00;98318.86;105184;1258;60416;-48
2023/07/26 02:57:33;;;;;;;3.80;0.80;;;;;;;22.26;100.00;98330.72;105572;1253;60553;-49
2023/07/26 03:00:00;;;;;;;5.20;0.70;;;;;;;22.23;100.00;98347.06;105161;1257;73813;-49
2023/07/26 03:02:27;;;;;;;3.00;0.80;;;;;;;22.22;100.00;98349.60;105245;1254;67651;-49
2023/07/26 03:04:55;;;;;;;4.10;1.10;;;;;;;22.22;100.00;98351.25;105217;1253;74598;-49
2023/07/26 03:07:22;;;;;;;3.50;0.80;;;;;;;22.22;100.00;98348.58;105221;1254;60555;-48
2023/07/26 03:09:50;;;;;;;3.90;1.10;;;;;;;22.21;100.00;98351.70;105169;1253;60511;-49
2023/07/26 03:12:17;;;;;;;2.50;0.80;;;;;;;22.21;100.00;98365.98;105887;1257;76995;-48
2023/07/26 03:14:44;;;;;;;2.80;0.90;;;;;;;22.20;100.00;98366.69;105641;1254;66335;-48
2023/07/26 03:17:11;;;;;;;3.10;1.00;;;;;;;22.18;100.00;98373.29;105200;1251;73070;-50
2023/07/26 03:19:42;;;;;;;4.00;1.10;;;;;;;22.17;100.00;98383.36;105380;1253;60514;-50
2023/07/26 03:22:09;;;;;;;6.50;0.90;;;;;;;22.15;100.00;98387.23;105316;1257;60556;-48
2023/07/26 03:24:36;;;;;;;1.70;0.70;;;;;;;22.13;100.00;98394.36;105262;1254;72607;-48
2023/07/26 03:27:06;;;;;;;5.00;0.80;;;;;;;22.10;100.00;98400.42;105289;1257;66372;-49
2023/07/26 03:29:34;;;;;;;3.10;0.90;;;;;;;22.07;100.00;98398.08;105935;1256;71745;-47
2023/07/26 03:32:01;;;;;;;4.00;1.40;;;;;;;22.06;100.00;98399.95;105297;1255;64155;-47
2023/07/26 03:34:28;;;;;;;2.20;0.70;;;;;;;22.06;100.00;98406.19;105275;1254;60558;-49
2023/07/26 03:36:56;;;;;;;3.50;0.80;;;;;;;22.07;100.00;98408.23;105273;1258;73768;-47
2023/07/26 03:39:24;;;;;;;6.60;0.70;;;;;;;22.07;100.00;98409.85;105281;1255;66475;-48
2023/07/26 03:41:53;;;;;;;1.20;0.70;;;;;;;22.08;100.00;98413.04;105322;1259;72431;-51
2023/07/26 03:44:20;;;;;;;4.00;1.50;;;;;;;22.08;100.00;98416.54;105189;1257;60491;-48
2023/07/26 03:46:49;;;;;;;4.60;0.80;;;;;;;22.07;100.00;98416.30;105542;1254;60537;-49
2023/07/26 03:49:16;;;;;;;2.50;0.80;;;;;;;22.07;100.00;98413.77;105253;1254;74419;-49
2023/07/26 03:51:43;;;;;;;3.00;0.70;;;;;;;22.06;100.00;98412.59;105132;1256;66443;-48
2023/07/26 03:54:11;;;;;;;3.50;0.70;;;;;;;22.03;100.00;98412.88;105141;1257;71379;-47
2023/07/26 03:56:38;;;;;;;5.00;0.90;;;;;;;22.03;100.00;98414.27;105093;1257;60613;-48
2023/07/26 03:59:06;;;;;;;2.40;0.80;;;;;;;22.02;100.00;98412.08;108730;1254;60708;-50
2023/07/26 04:01:33;;;;;;;3.10;0.80;;;;;;;22.05;100.00;98417.08;107103;1255;72862;-48
2023/07/26 04:04:00;;;;;;;1.90;0.70;;;;;;;22.08;100.00;98412.18;105226;1258;67109;-48
2023/07/26 04:06:28;;;;;;;4.90;1.10;;;;;;;22.10;100.00;98410.56;105527;1258;72548;-48
2023/07/26 04:08:56;;;;;;;2.80;0.80;;;;;;;22.13;100.00;98404.74;105116;1256;60541;-48
2023/07/26 04:11:23;;;;;;;3.90;1.40;;;;;;;22.16;100.00;98400.05;105190;1255;60452;-49
2023/07/26 04:13:50;;;;;;;3.00;0.80;;;;;;;22.18;100.00;98397.98;105104;1257;74092;-48
2023/07/26 04:16:21;;;;;;;2.30;0.90;;;;;;;22.21;100.00;98399.98;105322;1257;67450;-48
2023/07/26 04:18:48;;;;;;;2.60;0.70;;;;;;;22.25;100.00;98402.33;105238;1256;71285;-47
2023/07/26 04:21:17;;;;;;;2.70;0.80;;;;;;;22.28;100.00;98417.24;106989;1254;61712;-48
2023/07/26 04:23:45;;;;;;;6.00;1.60;;;;;;;22.33;100.00;98424.41;106164;1254;60654;-49
2023/07/26 04:26:13;;;;;;;2.70;0.90;;;;;;;22.38;100.00;98427.29;105279;1254;73173;-48
2023/07/26 04:28:40;;;;;;;5.30;0.80;;;;;;;22.44;100.00;98419.28;105205;1257;66497;-49
2023/07/26 04:31:07;;;;;;;7.70;0.80;;;;;;;22.49;100.00;98415.33;107687;1256;72743;-49
2023/07/26 04:33:35;;;;;;;2.00;0.90;;;;;;;22.55;100.00;98414.15;106111;1251;60781;-47
2023/07/26 04:36:03;;;;;;;6.70;0.80;;;;;;;22.63;100.00;98391.30;105342;1257;60456;-47
2023/07/26 04:38:30;;;;;;;7.90;0.80;;;;;;;22.70;100.00;98389.09;105532;1257;73776;-50
2023/07/26 04:40:57;;;;;;;4.70;1.20;;;;;;;22.76;100.00;98394.28;105322;1254;67730;-49
2023/07/26 04:43:24;;;;;;;3.50;0.90;;;;;;;22.80;100.00;98390.54;105379;1256;71378;-48
2023/07/26 04:45:52;;;;;;;3.30;0.90;;;;;;;22.86;100.00;98383.89;105474;1257;60507;-47
2023/07/26 04:48:20;;;;;;;3.10;0.90;;;;;;;22.89;100.00;98384.52;105387;1259;60417;-50
2023/07/26 04:50:48;;;;;;;1.70;0.80;;;;;;;22.93;100.00;98380.77;109131;1253;74390;-51
2023/07/26 04:53:15;;;;;;;2.60;0.70;;;;;;;22.98;100.00;98400.84;109204;1251;65655;-50
2023/07/26 04:55:43;;;;;;;3.10;0.80;;;;;;;23.02;100.00;98408.23;109055;1254;71841;-51
2023/07/26 04:58:11;;;;;;;1.70;0.80;;;;;;;23.09;100.00;98415.81;108999;1256;61658;-52
2023/07/26 05:00:39;;;;;;;1.60;0.70;;;;;;;23.16;100.00;98414.41;109121;1251;58770;-51
2023/07/26 05:03:07;;;;;;;4.30;1.10;;;;;;;23.23;100.00;98415.95;109089;1253;74687;-50
2023/07/26 05:05:34;;;;;;;2.90;0.80;;;;;;;23.27;100.00;98426.63;109064;1252;67104;-51
2023/07/26 05:08:02;;;;;;;7.90;0.90;;;;;;;23.29;100.00;98435.52;109125;1256;72656;-51
2023/07/26 05:10:30;;;;;;;1.80;0.80;;;;;;;23.30;100.00;98438.61;109201;1253;60093;-50
2023/07/26 05:12:57;;;;;;;2.60;1.00;;;;;;;23.33;100.00;98442.55;109064;1251;59585;-49
2023/07/26 05:15:25;;;;;;;3.30;1.00;;;;;;;23.35;100.00;98452.45;109122;1257;73029;-49
2023/07/26 05:17:52;;;;;;;3.40;0.60;;;;;;;23.40;100.00;98454.88;109059;1251;68001;-48
2023/07/26 05:20:20;;;;;;;1.50;0.70;;;;;;;23.43;100.00;98455.19;109074;1253;72078;-49
2023/07/26 05:22:47;;;;;;;2.80;0.70;;;;;;;23.47;100.00;98458.05;109065;1251;61250;-49
2023/07/26 05:25:14;;;;;;;2.30;0.70;;;;;;;23.52;100.00;98458.16;109171;1251;62126;-49
2023/07/26 05:27:42;;;;;;;2.60;0.90;;;;;;;23.58;100.00;98458.84;109113;1252;73936;-49
2023/07/26 05:30:11;;;;;;;4.30;0.90;;;;;;;23.62;100.00;98460.46;109156;1251;70090;-50
2023/07/26 05:32:39;;;;;;;6.30;1.10;;;;;;;23.65;100.00;98467.28;109024;1253;71784;-50
2023/07/26 05:35:07;;;;;;;2.00;0.70;;;;;;;23.72;100.00;98466.55;108168;1256;59347;-48
2023/07/26 05:37:35;;;;;;;2.00;0.90;;;;;;;23.79;100.00;98465.33;105174;1253;60450;-49
2023/07/26 05:40:05;;;;;;;1.70;0.90;;;;;;;23.85;100.00;98463.44;105143;1256;73960;-48
2023/07/26 05:42:33;;;;;;;5.60;0.70;;;;;;;23.89;100.00;98467.10;105666;1252;66640;-48
2023/07/26 05:45:00;;;;;;;1.70;0.90;;;;;;;23.91;100.00;98468.13;104933;1253;73141;-50
2023/07/26 05:47:27;;;;;;;2.60;0.70;;;;;;;23.93;100.00;98457.29;104970;1254;61013;-48
2023/07/26 05:49:55;;;;;;;1.90;0.80;;;;;;;23.96;100.00;98451.56;104876;1254;60604;-48
2023/07/26 05:52:22;;;;;;;3.40;0.80;;;;;;;23.99;100.00;98460.33;104981;1257;74374;-48
2023/07/26 05:54:49;;;;;;;2.30;0.80;;;;;;;24.02;100.00;98465.52;104862;1256;66440;-49
2023/07/26 05:57:17;;;;;;;1.50;0.80;;;;;;;24.03;100.00;98461.84;104970;1253;73210;-50
2023/07/26 05:59:44;;;;;;;6.30;0.90;;;;;;;24.05;100.00;98466.05;104944;1253;60454;-51
2023/07/26 06:02:11;;;;;;;3.10;0.80;;;;;;;24.08;100.00;98458.30;105013;1253;60715;-51
2023/07/26 06:04:39;;;;;;;1.60;1.00;;;;;;;24.10;100.00;98445.80;105204;1253;72575;-50
2023/07/26 06:07:06;;;;;;;2.60;0.90;;;;;;;24.11;100.00;98437.83;105041;1253;66810;-51
2023/07/26 06:09:34;;;;;;;1.90;1.10;;;;;;;24.10;100.00;98445.59;105228;1260;70922;-52
2023/07/26 06:12:02;;;;;;;3.50;0.90;;;;;;;24.07;100.00;98448.90;105378;1254;60529;-49
2023/07/26 06:14:30;;;;;;;2.30;1.10;;;;;;;24.03;100.00;98461.30;105455;1253;60485;-51
2023/07/26 06:16:58;;;;;;;4.20;1.40;;;;;;;24.00;100.00;98468.50;105448;1253;74367;-50
2023/07/26 06:19:25;;;;;;;3.90;1.10;;;;;;;23.98;100.00;98472.84;105496;1254;66723;-51
2023/07/26 06:21:55;;;;;;;2.40;0.90;;;;;;;23.97;100.00;98463.41;105500;1254;71871;-50
2023/07/26 06:24:27;;;;;;;2.10;1.90;;;;;;;24.00;100.00;98466.69;105531;1258;62145;-49
2023/07/26 06:26:59;;;;;;;3.50;1.10;;;;;;;24.04;100.00;98469.38;105524;1253;60674;-50
2023/07/26 06:29:26;;;;;;;2.40;1.40;;;;;;;24.13;100.00;98468.70;105447;1251;73788;-51
2023/07/26 06:31:54;;;;;;;1.90;1.00;;;;;;;24.20;100.00;98480.13;106933;1255;68026;-50
2023/07/26 06:34:21;;;;;;;3.20;0.80;;;;;;;24.25;100.00;98483.73;105385;1259;72432;-50
2023/07/26 06:36:49;;;;;;;2.00;1.00;;;;;;;24.29;100.00;98481.79;105993;1253;60576;-50
2023/07/26 06:39:17;;;;;;;1.30;0.80;;;;;;;24.33;100.00;98486.20;105356;1258;60385;-51
2023/07/26 06:41:44;;;;;;;2.70;0.90;;;;;;;24.34;100.00;98494.67;105704;1259;71831;-50
2023/07/26 06:44:11;;;;;;;2.10;1.10;;;;;;;24.33;100.00;98497.42;105314;1256;64948;-51
2023/07/26 06:46:39;;;;;;;2.80;1.00;;;;;;;24.29;100.00;98500.28;105250;1257;72149;-50
2023/07/26 06:49:06;;;;;;;1.30;1.00;;;;;;;24.27;100.00;98502.23;105316;1256;60681;-50
2023/07/26 06:51:34;;;;;;;1.90;0.90;;;;;;;24.26;100.00;98504.50;105146;1254;60509;-52
2023/07/26 06:54:02;;;;;;;4.10;1.00;;;;;;;24.24;100.00;98504.07;108877;1255;73810;-49
2023/07/26 06:56:29;;;;;;;1.40;0.80;;;;;;;24.23;100.00;98506.04;107458;1258;67556;-52
2023/07/26 06:58:56;;;;;;;1.90;0.80;;;;;;;24.24;100.00;98505.30;105167;1254;72426;-50
2023/07/26 07:01:24;;;;;;;1.00;0.70;;;;;;;24.27;100.00;98500.54;105219;1258;60464;-50
2023/07/26 07:03:51;;;;;;;2.00;0.90;;;;;;;24.33;100.00;98505.25;105850;1258;60380;-51
2023/07/26 07:06:38;;;;;;;1.30;0.80;;;;;;;24.39;100.00;98513.88;105205;1258;73829;-50
2023/07/26 07:09:05;;;;;;;2.40;0.80;;;;;;;24.40;100.00;98518.68;105222;1258;67676;-50
2023/07/26 07:11:32;;;;;;;3.10;0.90;;;;;;;24.39;100.00;98526.63;105160;1256;72202;-50
2023/07/26 07:14:00;;;;;;;2.90;0.90;;;;;;;24.38;100.00;98529.77;105258;1258;61840;-50
2023/07/26 07:16:28;;;;;;;4.50;0.90;;;;;;;24.39;100.00;98522.46;105886;1255;60461;-50
2023/07/26 07:18:56;;;;;;;1.80;0.90;;;;;;;24.45;100.00;98521.56;108979;1256;73943;-49
2023/07/26 07:21:24;;;;;;;1.40;0.90;;;;;;;24.50;100.00;98520.35;105475;1255;65636;-50
2023/07/26 07:23:52;;;;;;;1.90;0.70;;;;;;;24.50;100.00;98521.11;105034;1260;73042;-50
2023/07/26 07:26:20;;;;;;;2.40;0.80;;;;;;;24.52;100.00;98516.86;105167;1255;61684;-48
2023/07/26 07:28:47;;;;;;;3.40;0.70;;;;;;;24.56;100.00;98516.46;105197;1255;60627;-50
2023/07/26 07:31:15;;;;;;;0.90;0.80;;;;;;;24.64;100.00;98526.09;105245;1258;73769;-48
2023/07/26 07:33:42;;;;;;;2.00;0.80;;;;;;;24.74;100.00;98533.48;106057;1251;68254;-50
2023/07/26 07:36:12;;;;;;;3.50;0.80;;;;;;;24.83;100.00;98540.88;105253;1259;72625;-48
2023/07/26 07:38:39;;;;;;;1.50;0.60;;;;;;;24.92;100.00;98540.88;105503;1254;60527;-49
2023/07/26 07:41:07;;;;;;;1.90;0.70;;;;;;;24.98;100.00;98533.38;105326;1253;60540;-50
2023/07/26 07:43:36;;;;;;;3.00;0.70;;;;;;;25.02;100.00;98526.94;105651;1258;74296;-49
2023/07/26 07:46:03;;;;;;;2.50;1.00;;;;;;;25.08;100.00;98524.55;105402;1258;67536;-50
2023/07/26 07:48:31;;;;;;;0.80;0.70;;;;;;;25.14;100.00;98520.97;105378;1257;71192;-49
2023/07/26 07:50:58;;;;;;;1.40;0.70;;;;;;;25.21;100.00;98521.45;105434;1254;60389;-49
2023/07/26 07:53:25;;;;;;;2.30;0.60;;;;;;;25.26;100.00;98524.77;105165;1253;60434;-49
2023/07/26 07:55:56;;;;;;;0.90;0.70;;;;;;;25.29;100.00;98527.03;105174;1253;73788;-50
2023/07/26 07:58:26;;;;;;;0.70;0.60;;;;;;;25.30;100.00;98528.15;104773;1253;68186;-48
2023/07/26 08:00:58;;;;;;;6.60;1.90;;;;;;;25.31;100.00;98531.77;109053;1254;72692;-51
2023/07/26 08:03:26;;;;;;;1.40;0.70;;;;;;;25.31;100.00;98535.50;109059;1256;58809;-50
2023/07/26 08:05:53;;;;;;;1.30;0.70;;;;;;;25.33;100.00;98525.95;109084;1252;60145;-51
2023/07/26 08:08:21;;;;;;;1.50;0.70;;;;;;;25.38;100.00;98530.44;109142;1257;73785;-50
2023/07/26 08:10:49;;;;;;;2.40;0.70;;;;;;;25.46;100.00;98520.21;109029;1253;67198;-52
2023/07/26 08:13:16;;;;;;;1.60;0.70;;;;;;;25.54;100.00;98504.30;109004;1256;73171;-52
2023/07/26 08:15:44;;;;;;;3.60;0.50;;;;;;;25.59;100.00;98499.05;109104;1255;58820;-50
2023/07/26 08:18:11;;;;;;;3.00;0.70;;;;;;;25.53;100.00;98493.02;109008;1256;60060;-51
2023/07/26 08:20:39;;;;;;;0.90;0.70;;;;;;;25.46;100.00;98494.65;109090;1251;72730;-49
2023/07/26 08:23:06;;;;;;;1.10;0.70;;;;;;;25.42;100.00;98510.65;109136;1253;66342;-50
2023/07/26 08:25:34;;;;;;;0.90;0.70;;;;;;;25.40;100.00;98529.65;109136;1253;72676;-50
2023/07/26 08:28:01;;;;;;;2.30;0.60;;;;;;;25.37;100.00;98536.19;109235;1254;61018;-51
2023/07/26 08:30:28;;;;;;;0.90;0.60;;;;;;;25.34;100.00;98530.23;109061;1252;59958;-51
2023/07/26 08:32:56;;;;;;;2.60;1.40;;;;;;;25.28;100.00;98540.92;109225;1253;75355;-50
2023/07/26 08:35:23;;;;;;;1.10;0.60;;;;;;;25.24;100.00;98551.84;108828;1253;66651;-50
2023/07/26 08:37:51;;;;;;;0.50;0.50;;;;;;;25.21;100.00;98563.30;105435;1257;71417;-49
2023/07/26 08:40:19;;;;;;;0.70;0.60;;;;;;;25.15;100.00;98586.02;109072;1253;60108;-50
2023/07/26 08:42:46;;;;;;;1.70;0.60;;;;;;;25.09;100.00;98585.97;107347;1253;60505;-49
2023/07/26 08:45:14;;;;;;;1.30;0.70;;;;;;;25.03;100.00;98584.64;105332;1256;72897;-48
2023/07/26 08:47:41;;;;;;;0.70;0.70;;;;;;;24.98;100.00;98604.61;105715;1253;66003;-48
2023/07/26 08:50:10;;;;;;;0.70;0.60;;;;;;;24.94;100.00;98623.95;106379;1259;72696;-50
2023/07/26 08:52:37;;;;;;;1.00;0.50;;;;;;;24.93;100.00;98621.17;105450;1258;61651;-50
2023/07/26 08:55:06;;;;;;;1.00;0.70;;;;;;;24.92;100.00;98630.29;105399;1254;60491;-50
2023/07/26 08:57:33;;;;;;;0.80;0.80;;;;;;;24.91;100.00;98673.33;105524;1259;73774;-49
2023/07/26 09:00:00;;;;;;;0.80;0.70;;;;;;;24.89;100.00;98705.33;105343;1254;66122;-50
2023/07/26 09:02:28;;;;;;;0.70;0.60;;;;;;;24.86;100.00;98721.97;105382;1254;72591;-51
2023/07/26 09:04:56;;;;;;;0.60;0.60;;;;;;;24.83;100.00;98729.77;105491;1254;62768;-50
2023/07/26 09:07:24;;;;;;;1.60;0.70;;;;;;;24.75;100.00;98715.88;105394;1253;60361;-51
2023/07/26 09:09:51;;;;;;;1.70;0.70;;;;;;;24.65;100.00;98731.85;105378;1251;73742;-49
2023/07/26 09:12:26;;;;;;;0.80;0.70;;;;;;;24.53;100.00;98738.20;105690;1252;67950;-50
2023/07/26 09:14:57;;;;;;;1.40;0.60;;;;;;;24.39;100.00;98715.73;105420;1254;71705;-48
2023/07/26 09:17:41;;;;;;;0.60;0.60;;;;;;;24.26;100.00;98722.46;105320;1259;61410;-48
2023/07/26 09:20:25;;;;;;;2.60;0.80;;;;;;;24.15;100.00;98736.82;105800;1253;60639;-48
2023/07/26 09:23:03;;;;;;;3.90;0.60;;;;;;;24.01;100.00;98732.02;104970;1257;74326;-47
2023/07/26 09:25:37;;;;;;;2.20;0.70;;;;;;;23.92;100.00;98722.71;104802;1254;67013;-48
2023/07/26 09:28:05;;;;;;;2.20;0.70;;;;;;;23.84;100.00;98724.38;105065;1259;73120;-48
2023/07/26 09:30:36;;;;;;;1.10;0.50;;;;;;;23.76;100.00;98644.35;105095;1254;61679;-47
2023/07/26 09:33:05;;;;;;;0.70;0.60;;;;;;;23.66;100.00;98703.67;105402;1257;60648;-47
2023/07/26 09:35:44;;;;;;;0.80;0.80;;;;;;;23.58;100.00;98735.50;105629;1258;72572;-47
2023/07/26 09:38:16;;;;;;;3.40;0.60;;;;;;;23.55;100.00;98768.16;105737;1253;68083;-49
2023/07/26 09:40:44;;;;;;;1.20;0.70;;;;;;;23.52;100.00;98775.69;105471;1253;71419;-48
2023/07/26 09:43:11;;;;;;;1.20;0.60;;;;;;;23.50;100.00;98765.77;105312;1254;60531;-50
2023/07/26 09:45:40;;;;;;;0.70;0.60;;;;;;;23.50;100.00;98773.83;105305;1254;61889;-50
2023/07/26 09:48:10;;;;;;;1.50;0.60;;;;;;;23.48;100.00;98772.26;109030;1253;73792;-49
2023/07/26 09:50:41;;;;;;;1.20;0.60;;;;;;;23.46;100.00;98766.36;105409;1258;66459;-48
2023/07/26 09:53:09;;;;;;;1.00;0.60;;;;;;;23.44;100.00;98774.90;105142;1251;72648;-47
2023/07/26 09:55:36;;;;;;;2.30;0.60;;;;;;;23.44;100.00;98787.88;105457;1251;61741;-48
2023/07/26 09:58:04;;;;;;;0.90;0.50;;;;;;;23.40;100.00;98719.22;105329;1260;60453;-51
2023/07/26 10:00:33;;;;;;;1.30;0.60;;;;;;;23.31;100.00;98489.25;105398;1254;73834;-45
2023/07/26 10:03:04;;;;;;;0.90;0.50;;;;;;;23.12;100.00;98475.78;105509;1253;66884;-47
2023/07/26 10:05:38;;;;;;;1.30;0.60;;;;;;;23.00;100.00;98574.91;106145;1257;73146;-47
2023/07/26 10:08:06;;;;;;;0.70;0.50;;;;;;;22.98;100.00;98587.95;105320;1254;61683;-47
2023/07/26 10:10:33;;;;;;;0.50;0.50;;;;;;;23.01;100.00;98592.03;105445;1256;60568;-48
2023/07/26 10:13:01;;;;;;;0.50;0.50;;;;;;;23.04;100.00;98601.52;105542;1257;74078;-48
2023/07/26 10:15:30;;;;;;;0.50;0.50;;;;;;;23.10;100.00;98618.95;105445;1254;66822;-49
2023/07/26 10:17:57;;;;;;;0.60;0.60;;;;;;;23.21;100.00;98608.88;105397;1251;72637;-47
2023/07/26 10:20:25;;;;;;;0.70;0.70;;;;;;;23.31;100.00;98613.38;105419;1254;61749;-50
2023/07/26 10:22:53;;;;;;;0.90;0.50;;;;;;;23.39;100.00;98605.39;105491;1251;60428;-48
2023/07/26 10:25:20;;;;;;;0.70;0.40;;;;;;;23.45;100.00;98583.70;105304;1251;73858;-51
2023/07/26 10:27:48;;;;;;;0.60;0.40;;;;;;;23.48;100.00;98580.60;104890;1260;66820;-49
2023/07/26 10:30:15;;;;;;;0.50;0.50;;;;;;;23.52;100.00;98565.81;104798;1256;72735;-49
2023/07/26 10:32:49;;;;;;;0.50;0.40;;;;;;;23.60;100.00;98548.37;105316;1257;61681;-50
2023/07/26 10:35:31;;;;;;;0.50;0.50;;;;;;;23.70;100.00;98545.67;106022;1253;60545;-49
2023/07/26 10:38:05;;;;;;;0.50;0.50;;;;;;;23.79;100.00;98552.58;108905;1250;74728;-50
2023/07/26 10:40:34;;;;;;;0.90;0.40;;;;;;;23.92;100.00;98553.08;106746;1256;67082;-49
2023/07/26 10:43:16;;;;;;;0.50;0.50;;;;;;;24.02;100.00;98564.27;106939;1257;71576;-48
2023/07/26 10:45:44;;;;;;;1.40;0.40;;;;;;;24.09;100.00;98540.96;105427;1257;60577;-50
2023/07/26 10:50:24;;;;;;;0.60;0.50;;;;;;;24.26;100.00;98568.47;102276;1293;600835;-50
2023/07/26 10:52:51;;;;;;;0.60;0.60;;;;;;;24.30;100.00;98556.18;104652;1263;60460;-50
2023/07/26 10:55:22;;;;;;;0.60;0.60;;;;;;;24.37;100.00;98559.92;104503;1264;59284;-49
2023/07/26 10:57:49;;;;;;;0.60;0.60;;;;;;;24.45;100.00;98563.16;104791;1270;72290;-48
2023/07/26 11:00:22;;;;;;;1.10;0.60;;;;;;;24.46;100.00;98565.83;108226;1266;66974;-51
2023/07/26 11:03:00;;;;;;;0.40;0.40;;;;;;;24.42;100.00;98565.65;108171;1271;248341;-49
2023/07/26 11:05:29;;;;;;;0.80;0.40;;;;;;;24.44;100.00;98566.78;108368;1263;60474;-49
2023/07/26 11:08:07;;;;;;;0.50;0.50;;;;;;;24.52;100.00;98570.91;108351;1264;59978;-50
2023/07/26 11:10:35;;;;;;;0.50;0.50;;;;;;;24.65;100.00;98573.38;108425;1263;71001;-50
2023/07/26 11:13:29;;;;;;;1.10;0.50;;;;;;;24.75;100.00;98572.02;108297;1263;66335;-48
2023/07/26 11:15:57;;;;;;;1.00;0.50;;;;;;;24.87;100.00;98572.73;108395;1263;71515;-50
2023/07/26 11:18:44;;;;;;;1.20;0.60;;;;;;;24.95;100.00;98572.33;108314;1264;59286;-49
2023/07/26 11:21:15;;;;;;;0.70;0.40;;;;;;;24.97;100.00;98577.61;108471;1266;58754;-51
2023/07/26 11:23:43;;;;;;;1.70;0.50;;;;;;;24.93;100.00;98577.98;108474;1265;71845;-50
2023/07/26 11:26:10;;;;;;;0.50;0.50;;;;;;;24.89;100.00;98581.23;108496;1263;67691;-49